sensor_id;sensor_type;location;lat;lon;timestamp;pressure;altitude;pressure_sealevel;temperature;humidity
24620;BME280;12763;55.802;37.404;2023-06-19T00:02:22;99697.97;;;19.16;48.27
24620;BME280;12763;55.802;37.404;2023-06-19T00:04:48;99708.31;;;19.16;48.21
24620;BME280;12763;55.802;37.404;2023-06-19T00:07:14;99694.31;;;19.16;48.21
24620;BME280;12763;55.802;37.404;2023-06-19T00:09:40;99701.56;;;19.17;48.22
24620;BME280;12763;55.802;37.404;2023-06-19T00:12:06;99698.25;;;19.20;48.09
24620;BME280;12763;55.802;37.404;2023-06-19T00:14:31;99701.56;;;19.12;48.33
24620;BME280;12763;55.802;37.404;2023-06-19T00:16:58;99701.81;;;19.05;48.51
24620;BME280;12763;55.802;37.404;2023-06-19T00:19:26;99700.50;;;18.81;48.63
24620;BME280;12763;55.802;37.404;2023-06-19T00:21:52;99696.28;;;18.78;48.66
24620;BME280;12763;55.802;37.404;2023-06-19T00:24:23;99700.22;;;18.77;48.66
24620;BME280;12763;55.802;37.404;2023-06-19T00:26:49;99699.06;;;18.73;48.60
24620;BME280;12763;55.802;37.404;2023-06-19T00:29:16;99698.47;;;18.71;48.66
24620;BME280;12763;55.802;37.404;2023-06-19T00:31:41;99706.59;;;18.73;48.79
24620;BME280;12763;55.802;37.404;2023-06-19T00:34:08;99700.13;;;18.67;48.98
24620;BME280;12763;55.802;37.404;2023-06-19T00:36:34;99706.75;;;18.61;49.38
24620;BME280;12763;55.802;37.404;2023-06-19T00:39:07;99694.47;;;18.57;49.71
24620;BME280;12763;55.802;37.404;2023-06-19T00:41:35;99702.66;;;18.69;48.86
24620;BME280;12763;55.802;37.404;2023-06-19T00:44:01;99694.13;;;18.54;48.96
24620;BME280;12763;55.802;37.404;2023-06-19T00:46:27;99700.78;;;18.48;49.32
24620;BME280;12763;55.802;37.404;2023-06-19T00:48:54;99698.38;;;18.30;49.70
24620;BME280;12763;55.802;37.404;2023-06-19T00:51:20;99699.22;;;18.30;49.55
24620;BME280;12763;55.802;37.404;2023-06-19T00:53:47;99703.44;;;18.33;49.45
24620;BME280;12763;55.802;37.404;2023-06-19T00:56:13;99697.31;;;18.36;49.67
24620;BME280;12763;55.802;37.404;2023-06-19T00:58:41;99703.16;;;18.34;49.67
24620;BME280;12763;55.802;37.404;2023-06-19T01:01:07;99703.16;;;18.34;49.64
24620;BME280;12763;55.802;37.404;2023-06-19T01:03:33;99718.28;;;18.38;49.50
24620;BME280;12763;55.802;37.404;2023-06-19T01:06:00;99710.44;;;18.35;49.75
24620;BME280;12763;55.802;37.404;2023-06-19T01:10:57;99704.22;;;18.28;49.69
24620;BME280;12763;55.802;37.404;2023-06-19T01:13:48;99709.75;;;18.23;50.04
24620;BME280;12763;55.802;37.404;2023-06-19T01:16:18;99707.22;;;18.22;49.98
24620;BME280;12763;55.802;37.404;2023-06-19T01:18:44;99708.31;;;18.20;49.70
24620;BME280;12763;55.802;37.404;2023-06-19T01:21:14;99712.81;;;18.22;49.83
24620;BME280;12763;55.802;37.404;2023-06-19T01:23:42;99716.97;;;18.19;49.73
24620;BME280;12763;55.802;37.404;2023-06-19T01:26:08;99712.81;;;18.22;49.79
24620;BME280;12763;55.802;37.404;2023-06-19T01:28:39;99709.22;;;18.26;49.68
24620;BME280;12763;55.802;37.404;2023-06-19T01:34:20;99716.75;;;18.26;49.66
24620;BME280;12763;55.802;37.404;2023-06-19T01:36:48;99718.41;;;18.22;49.59
24620;BME280;12763;55.802;37.404;2023-06-19T01:39:16;99721.50;;;18.25;49.31
24620;BME280;12763;55.802;37.404;2023-06-19T01:41:44;99720.91;;;18.23;49.78
24620;BME280;12763;55.802;37.404;2023-06-19T01:44:11;99715.03;;;18.19;49.59
24620;BME280;12763;55.802;37.404;2023-06-19T01:46:37;99719.72;;;18.14;49.56
24620;BME280;12763;55.802;37.404;2023-06-19T01:49:07;99719.78;;;18.19;49.69
24620;BME280;12763;55.802;37.404;2023-06-19T01:51:35;99726.47;;;18.18;49.69
24620;BME280;12763;55.802;37.404;2023-06-19T01:54:01;99717.56;;;18.21;49.47
24620;BME280;12763;55.802;37.404;2023-06-19T01:56:27;99719.78;;;18.19;49.69
24620;BME280;12763;55.802;37.404;2023-06-19T01:58:53;99724.84;;;18.22;49.87
24620;BME280;12763;55.802;37.404;2023-06-19T02:01:21;99722.09;;;18.27;49.69
24620;BME280;12763;55.802;37.404;2023-06-19T02:03:47;99718.97;;;18.24;49.64
24620;BME280;12763;55.802;37.404;2023-06-19T02:06:13;99720.34;;;18.21;49.85
24620;BME280;12763;55.802;37.404;2023-06-19T02:08:39;99713.06;;;18.20;49.78
24620;BME280;12763;55.802;37.404;2023-06-19T02:11:06;99720.09;;;18.23;49.86
24620;BME280;12763;55.802;37.404;2023-06-19T02:13:33;99721.50;;;18.25;49.87
24620;BME280;12763;55.802;37.404;2023-06-19T02:15:59;99714.84;;;18.31;49.66
24620;BME280;12763;55.802;37.404;2023-06-19T02:18:27;99718.44;;;18.27;49.56
24620;BME280;12763;55.802;37.404;2023-06-19T02:20:53;99718.19;;;18.28;49.53
24620;BME280;12763;55.802;37.404;2023-06-19T02:23:21;99720.66;;;18.25;49.63
24620;BME280;12763;55.802;37.404;2023-06-19T02:25:47;99709.00;;;18.33;49.59
24620;BME280;12763;55.802;37.404;2023-06-19T02:28:16;99718.50;;;18.32;49.49
24620;BME280;12763;55.802;37.404;2023-06-19T02:30:41;99715.69;;;18.32;49.68
24620;BME280;12763;55.802;37.404;2023-06-19T02:33:08;99704.81;;;18.30;49.60
24620;BME280;12763;55.802;37.404;2023-06-19T02:35:34;99704.56;;;18.37;49.49
24620;BME280;12763;55.802;37.404;2023-06-19T02:37:59;99712.47;;;18.45;49.21
24620;BME280;12763;55.802;37.404;2023-06-19T02:40:25;99707.72;;;18.45;48.90
24620;BME280;12763;55.802;37.404;2023-06-19T02:42:53;99709.38;;;18.41;49.10
24620;BME280;12763;55.802;37.404;2023-06-19T02:45:20;99708.38;;;18.52;49.05
24620;BME280;12763;55.802;37.404;2023-06-19T02:47:47;99707.31;;;18.58;49.16
24620;BME280;12763;55.802;37.404;2023-06-19T02:50:13;99717.41;;;18.64;48.75
24620;BME280;12763;55.802;37.404;2023-06-19T02:52:39;99713.00;;;18.68;49.34
24620;BME280;12763;55.802;37.404;2023-06-19T02:55:05;99706.56;;;18.68;48.86
24620;BME280;12763;55.802;37.404;2023-06-19T02:57:33;99716.34;;;18.70;48.96
24620;BME280;12763;55.802;37.404;2023-06-19T02:59:59;99704.59;;;18.68;48.95
24620;BME280;12763;55.802;37.404;2023-06-19T03:02:26;99713.31;;;18.72;48.63
24620;BME280;12763;55.802;37.404;2023-06-19T03:04:52;99704.84;;;18.67;48.72
24620;BME280;12763;55.802;37.404;2023-06-19T03:07:18;99699.63;;;18.75;48.87
24620;BME280;12763;55.802;37.404;2023-06-19T03:09:44;99701.91;;;18.84;48.52
24620;BME280;12763;55.802;37.404;2023-06-19T03:12:11;99708.09;;;18.86;48.73
24620;BME280;12763;55.802;37.404;2023-06-19T03:14:37;99706.41;;;18.85;48.42
24620;BME280;12763;55.802;37.404;2023-06-19T03:17:04;99693.59;;;18.89;48.28
24620;BME280;12763;55.802;37.404;2023-06-19T03:19:31;99699.44;;;18.87;48.24
24620;BME280;12763;55.802;37.404;2023-06-19T03:21:57;99699.19;;;18.89;48.41
24620;BME280;12763;55.802;37.404;2023-06-19T03:24:23;99696.97;;;18.96;48.24
24620;BME280;12763;55.802;37.404;2023-06-19T03:26:50;99704.84;;;18.99;48.17
24620;BME280;12763;55.802;37.404;2023-06-19T03:29:16;99704.63;;;19.10;47.91
24620;BME280;12763;55.802;37.404;2023-06-19T03:31:57;99701.31;;;19.18;47.84
24620;BME280;12763;55.802;37.404;2023-06-19T03:34:28;99699.97;;;19.31;47.87
24620;BME280;12763;55.802;37.404;2023-06-19T03:36:54;99700.28;;;19.34;47.73
24620;BME280;12763;55.802;37.404;2023-06-19T03:39:21;99709.03;;;19.43;47.33
24620;BME280;12763;55.802;37.404;2023-06-19T03:41:47;99706.53;;;19.47;47.04
24620;BME280;12763;55.802;37.404;2023-06-19T03:44:14;99700.44;;;19.55;46.72
24620;BME280;12763;55.802;37.404;2023-06-19T03:46:40;99712.75;;;19.59;46.78
24620;BME280;12763;55.802;37.404;2023-06-19T03:49:06;99699.91;;;19.68;46.38
24620;BME280;12763;55.802;37.404;2023-06-19T03:51:32;99707.78;;;19.76;46.48
24620;BME280;12763;55.802;37.404;2023-06-19T03:53:58;99710.03;;;19.79;46.15
24620;BME280;12763;55.802;37.404;2023-06-19T03:56:24;99707.00;;;19.85;46.20
24620;BME280;12763;55.802;37.404;2023-06-19T03:58:51;99713.13;;;19.82;45.85
24620;BME280;12763;55.802;37.404;2023-06-19T04:01:17;99697.44;;;19.86;46.14
24620;BME280;12763;55.802;37.404;2023-06-19T04:03:43;99710.97;;;20.05;45.67
24620;BME280;12763;55.802;37.404;2023-06-19T04:06:09;99719.38;;;20.05;45.76
24620;BME280;12763;55.802;37.404;2023-06-19T04:08:38;99718.81;;;20.13;45.55
24620;BME280;12763;55.802;37.404;2023-06-19T04:11:04;99713.78;;;20.20;45.55
24620;BME280;12763;55.802;37.404;2023-06-19T04:13:30;99708.50;;;20.28;45.02
24620;BME280;12763;55.802;37.404;2023-06-19T04:15:56;99711.06;;;20.35;44.84
24620;BME280;12763;55.802;37.404;2023-06-19T04:18:22;99716.09;;;20.38;44.86
24620;BME280;12763;55.802;37.404;2023-06-19T04:20:48;99707.94;;;20.46;44.52
24620;BME280;12763;55.802;37.404;2023-06-19T04:23:14;99711.91;;;20.50;44.15
24620;BME280;12763;55.802;37.404;2023-06-19T04:25:40;99711.03;;;20.55;44.01
24620;BME280;12763;55.802;37.404;2023-06-19T04:28:06;99716.69;;;20.60;44.12
24620;BME280;12763;55.802;37.404;2023-06-19T04:30:32;99715.28;;;20.68;43.90
24620;BME280;12763;55.802;37.404;2023-06-19T04:32:58;99710.50;;;20.68;43.81
24620;BME280;12763;55.802;37.404;2023-06-19T04:35:25;99709.09;;;20.71;43.59
24620;BME280;12763;55.802;37.404;2023-06-19T04:37:51;99700.97;;;20.79;43.15
24620;BME280;12763;55.802;37.404;2023-06-19T04:40:17;99707.69;;;20.78;43.42
24620;BME280;12763;55.802;37.404;2023-06-19T04:42:44;99710.50;;;20.78;43.27
24620;BME280;12763;55.802;37.404;2023-06-19T04:45:11;99714.16;;;20.74;43.47
24620;BME280;12763;55.802;37.404;2023-06-19T04:47:37;99712.47;;;20.93;43.05
24620;BME280;12763;55.802;37.404;2023-06-19T04:50:07;99704.31;;;21.01;42.73
24620;BME280;12763;55.802;37.404;2023-06-19T04:52:33;99700.97;;;21.10;42.38
24620;BME280;12763;55.802;37.404;2023-06-19T04:54:59;99711.31;;;21.19;42.13
24620;BME280;12763;55.802;37.404;2023-06-19T04:57:25;99714.41;;;21.23;41.90
24620;BME280;12763;55.802;37.404;2023-06-19T04:59:51;99712.16;;;21.25;41.24
24620;BME280;12763;55.802;37.404;2023-06-19T05:02:17;99714.94;;;21.25;41.50
24620;BME280;12763;55.802;37.404;2023-06-19T05:04:43;99709.91;;;21.06;41.59
24620;BME280;12763;55.802;37.404;2023-06-19T05:07:10;99716.06;;;21.34;40.91
24620;BME280;12763;55.802;37.404;2023-06-19T05:09:41;99718.06;;;21.08;40.75
24620;BME280;12763;55.802;37.404;2023-06-19T05:12:07;99718.63;;;21.10;40.59
24620;BME280;12763;55.802;37.404;2023-06-19T05:14:33;99719.97;;;21.38;40.40
24620;BME280;12763;55.802;37.404;2023-06-19T05:16:58;99720.53;;;21.45;39.85
24620;BME280;12763;55.802;37.404;2023-06-19T05:19:24;99720.84;;;21.13;40.10
24620;BME280;12763;55.802;37.404;2023-06-19T05:21:50;99721.13;;;21.22;40.06
24620;BME280;12763;55.802;37.404;2023-06-19T05:24:16;99728.13;;;21.29;39.85
24620;BME280;12763;55.802;37.404;2023-06-19T05:26:42;99720.47;;;21.55;39.56
24620;BME280;12763;55.802;37.404;2023-06-19T05:29:08;99715.13;;;21.58;39.34
24620;BME280;12763;55.802;37.404;2023-06-19T05:31:34;99702.75;;;21.70;39.13
24620;BME280;12763;55.802;37.404;2023-06-19T05:34:01;99701.88;;;21.74;39.27
24620;BME280;12763;55.802;37.404;2023-06-19T05:36:27;99709.41;;;21.84;38.50
24620;BME280;12763;55.802;37.404;2023-06-19T05:38:53;99704.06;;;21.92;38.00
24620;BME280;12763;55.802;37.404;2023-06-19T05:41:19;99704.63;;;21.94;37.56
24620;BME280;12763;55.802;37.404;2023-06-19T05:43:45;99708.31;;;21.90;37.39
24620;BME280;12763;55.802;37.404;2023-06-19T05:46:11;99709.13;;;21.90;37.45
24620;BME280;12763;55.802;37.404;2023-06-19T05:48:37;99704.38;;;21.81;37.28
24620;BME280;12763;55.802;37.404;2023-06-19T05:51:03;99705.47;;;21.95;36.97
24620;BME280;12763;55.802;37.404;2023-06-19T05:53:29;99702.31;;;22.01;36.90
24620;BME280;12763;55.802;37.404;2023-06-19T05:55:56;99702.66;;;21.95;36.96
24620;BME280;12763;55.802;37.404;2023-06-19T05:58:23;99705.47;;;21.95;37.42
24620;BME280;12763;55.802;37.404;2023-06-19T06:00:51;99707.38;;;21.99;37.20
24620;BME280;12763;55.802;37.404;2023-06-19T06:03:26;99705.69;;;22.03;37.23
24620;BME280;12763;55.802;37.404;2023-06-19T06:05:53;99703.63;;;22.19;37.08
24620;BME280;12763;55.802;37.404;2023-06-19T06:08:19;99700.00;;;22.13;37.20
24620;BME280;12763;55.802;37.404;2023-06-19T06:10:45;99701.31;;;22.31;36.95
24620;BME280;12763;55.802;37.404;2023-06-19T06:13:11;99702.06;;;22.42;36.71
24620;BME280;12763;55.802;37.404;2023-06-19T06:15:37;99690.38;;;22.24;36.97
24620;BME280;12763;55.802;37.404;2023-06-19T06:18:03;99693.69;;;22.32;36.93
24620;BME280;12763;55.802;37.404;2023-06-19T06:20:29;99697.22;;;22.52;36.58
24620;BME280;12763;55.802;37.404;2023-06-19T06:22:55;99684.72;;;22.30;37.04
24620;BME280;12763;55.802;37.404;2023-06-19T06:25:21;99693.97;;;22.35;36.87
24620;BME280;12763;55.802;37.404;2023-06-19T06:27:47;99696.91;;;22.54;36.84
24620;BME280;12763;55.802;37.404;2023-06-19T06:30:13;99696.81;;;22.69;36.71
24620;BME280;12763;55.802;37.404;2023-06-19T06:32:39;99688.91;;;22.71;36.48
24620;BME280;12763;55.802;37.404;2023-06-19T06:35:05;99696.19;;;22.77;36.15
24620;BME280;12763;55.802;37.404;2023-06-19T06:37:32;99689.44;;;22.78;36.38
24620;BME280;12763;55.802;37.404;2023-06-19T06:39:58;99691.09;;;22.79;36.11
24620;BME280;12763;55.802;37.404;2023-06-19T06:42:24;99690.03;;;22.75;36.48
24620;BME280;12763;55.802;37.404;2023-06-19T06:44:50;99689.44;;;22.78;36.44
24620;BME280;12763;55.802;37.404;2023-06-19T06:47:16;99681.34;;;23.00;36.54
24620;BME280;12763;55.802;37.404;2023-06-19T06:49:42;99685.75;;;23.11;35.98
24620;BME280;12763;55.802;37.404;2023-06-19T06:52:08;99696.13;;;22.82;36.32
24620;BME280;12763;55.802;37.404;2023-06-19T06:54:34;99684.28;;;22.85;36.49
24620;BME280;12763;55.802;37.404;2023-06-19T06:57:00;99682.22;;;22.96;36.21
24620;BME280;12763;55.802;37.404;2023-06-19T06:59:27;99685.09;;;23.19;36.19
24620;BME280;12763;55.802;37.404;2023-06-19T07:01:54;99686.09;;;23.28;35.75
24620;BME280;12763;55.802;37.404;2023-06-19T07:04:22;99679.59;;;23.33;35.82
24620;BME280;12763;55.802;37.404;2023-06-19T07:06:49;99681.06;;;23.25;35.70
24620;BME280;12763;55.802;37.404;2023-06-19T07:09:15;99676.78;;;23.04;36.13
24620;BME280;12763;55.802;37.404;2023-06-19T07:11:41;99678.69;;;23.09;36.43
24620;BME280;12763;55.802;37.404;2023-06-19T07:14:07;99669.28;;;23.23;36.20
24620;BME280;12763;55.802;37.404;2023-06-19T07:16:33;99668.63;;;23.31;36.00
24620;BME280;12763;55.802;37.404;2023-06-19T07:18:59;99665.97;;;23.16;36.01
24620;BME280;12763;55.802;37.404;2023-06-19T07:21:27;99659.94;;;23.28;35.98
24620;BME280;12763;55.802;37.404;2023-06-19T07:23:53;99661.03;;;23.03;36.43
24620;BME280;12763;55.802;37.404;2023-06-19T07:26:20;99660.16;;;23.08;36.28
24620;BME280;12763;55.802;37.404;2023-06-19T07:28:46;99663.16;;;23.16;35.85
24620;BME280;12763;55.802;37.404;2023-06-19T07:31:12;99659.56;;;23.11;35.89
24620;BME280;12763;55.802;37.404;2023-06-19T07:33:38;99661.09;;;22.98;36.28
24620;BME280;12763;55.802;37.404;2023-06-19T07:36:05;99658.53;;;23.02;35.31
24620;BME280;12763;55.802;37.404;2023-06-19T07:38:31;99655.38;;;22.79;35.03
24620;BME280;12763;55.802;37.404;2023-06-19T07:40:58;99668.88;;;23.06;34.15
24620;BME280;12763;55.802;37.404;2023-06-19T07:43:24;99663.88;;;23.27;33.17
24620;BME280;12763;55.802;37.404;2023-06-19T07:45:50;99657.59;;;23.11;34.29
24620;BME280;12763;55.802;37.404;2023-06-19T07:48:15;99658.91;;;23.19;34.36
24620;BME280;12763;55.802;37.404;2023-06-19T07:50:42;99663.03;;;23.26;34.49
24620;BME280;12763;55.802;37.404;2023-06-19T07:53:08;99664.34;;;23.10;34.53
24620;BME280;12763;55.802;37.404;2023-06-19T07:55:34;99658.34;;;23.46;33.47
24620;BME280;12763;55.802;37.404;2023-06-19T07:58:03;99653.09;;;23.39;33.56
24620;BME280;12763;55.802;37.404;2023-06-19T08:00:29;99661.41;;;23.20;33.39
24620;BME280;12763;55.802;37.404;2023-06-19T08:02:55;99659.13;;;23.51;32.73
24620;BME280;12763;55.802;37.404;2023-06-19T08:05:21;99664.34;;;23.10;33.39
24620;BME280;12763;55.802;37.404;2023-06-19T08:07:48;99660.28;;;23.21;33.39
24620;BME280;12763;55.802;37.404;2023-06-19T08:10:14;99663.06;;;22.98;33.82
24620;BME280;12763;55.802;37.404;2023-06-19T08:12:43;99665.06;;;22.97;34.39
24620;BME280;12763;55.802;37.404;2023-06-19T08:15:17;99661.09;;;22.98;34.32
24620;BME280;12763;55.802;37.404;2023-06-19T08:17:43;99659.28;;;23.36;33.85
24620;BME280;12763;55.802;37.404;2023-06-19T08:20:09;99655.88;;;23.63;33.74
24620;BME280;12763;55.802;37.404;2023-06-19T08:22:35;99661.47;;;23.44;33.33
24620;BME280;12763;55.802;37.404;2023-06-19T08:25:02;99659.44;;;23.50;32.88
24620;BME280;12763;55.802;37.404;2023-06-19T08:27:29;99640.88;;;23.20;32.76
24620;BME280;12763;55.802;37.404;2023-06-19T08:29:55;99654.19;;;23.62;32.83
24620;BME280;12763;55.802;37.404;2023-06-19T08:32:21;99647.53;;;23.95;32.65
24620;BME280;12763;55.802;37.404;2023-06-19T08:34:47;99649.09;;;24.25;31.66
24620;BME280;12763;55.802;37.404;2023-06-19T08:37:13;99644.97;;;24.17;31.33
24620;BME280;12763;55.802;37.404;2023-06-19T08:39:39;99642.91;;;24.23;31.54
24620;BME280;12763;55.802;37.404;2023-06-19T08:42:08;99645.59;;;24.33;30.79
24620;BME280;12763;55.802;37.404;2023-06-19T08:44:35;99645.72;;;24.41;31.54
24620;BME280;12763;55.802;37.404;2023-06-19T08:47:03;99638.91;;;24.10;31.58
24620;BME280;12763;55.802;37.404;2023-06-19T08:49:30;99650.91;;;24.34;31.23
24620;BME280;12763;55.802;37.404;2023-06-19T08:51:57;99643.38;;;24.11;30.87
24620;BME280;12763;55.802;37.404;2023-06-19T08:54:23;99637.53;;;24.26;30.73
24620;BME280;12763;55.802;37.404;2023-06-19T08:56:51;99642.56;;;24.29;30.63
24620;BME280;12763;55.802;37.404;2023-06-19T08:59:20;99638.44;;;24.40;30.36
24620;BME280;12763;55.802;37.404;2023-06-19T09:01:49;99635.34;;;24.55;30.62
24620;BME280;12763;55.802;37.404;2023-06-19T09:04:25;99634.91;;;24.48;30.99
24620;BME280;12763;55.802;37.404;2023-06-19T09:06:59;99631.16;;;23.78;30.52
24620;BME280;12763;55.802;37.404;2023-06-19T09:09:27;99629.50;;;23.54;31.30
24620;BME280;12763;55.802;37.404;2023-06-19T09:12:06;99629.84;;;24.13;30.23
24620;BME280;12763;55.802;37.404;2023-06-19T09:14:38;99627.75;;;24.37;29.54
24620;BME280;12763;55.802;37.404;2023-06-19T09:17:26;99620.97;;;24.71;29.14
24620;BME280;12763;55.802;37.404;2023-06-19T09:19:56;99621.66;;;24.30;30.84
24620;BME280;12763;55.802;37.404;2023-06-19T09:22:22;99623.63;;;24.48;31.12
24620;BME280;12763;55.802;37.404;2023-06-19T09:24:49;99622.31;;;24.60;31.23
24620;BME280;12763;55.802;37.404;2023-06-19T09:27:19;99623.63;;;24.48;31.47
24620;BME280;12763;55.802;37.404;2023-06-19T09:29:50;99610.03;;;24.50;31.54
24620;BME280;12763;55.802;37.404;2023-06-19T09:32:22;99614.56;;;24.84;31.37
24620;BME280;12763;55.802;37.404;2023-06-19T09:34:52;99619.25;;;24.56;31.68
24620;BME280;12763;55.802;37.404;2023-06-19T09:37:27;99605.06;;;24.93;31.48
24620;BME280;12763;55.802;37.404;2023-06-19T09:42:35;99608.78;;;25.48;30.89
24620;BME280;12763;55.802;37.404;2023-06-19T09:45:03;99614.06;;;25.77;30.32
24620;BME280;12763;55.802;37.404;2023-06-19T09:47:45;99616.84;;;26.18;30.05
24620;BME280;12763;55.802;37.404;2023-06-19T09:50:13;99615.38;;;26.07;30.02
24620;BME280;12763;55.802;37.404;2023-06-19T09:52:41;99608.34;;;26.40;29.93
24620;BME280;12763;55.802;37.404;2023-06-19T09:55:09;99605.78;;;26.52;29.88
24620;BME280;12763;55.802;37.404;2023-06-19T09:57:38;99602.09;;;26.74;29.39
24620;BME280;12763;55.802;37.404;2023-06-19T10:00:06;99602.94;;;26.74;29.15
24620;BME280;12763;55.802;37.404;2023-06-19T10:02:43;99591.41;;;26.71;29.04
24620;BME280;12763;55.802;37.404;2023-06-19T10:05:10;99597.78;;;26.99;29.30
24620;BME280;12763;55.802;37.404;2023-06-19T10:07:40;99586.19;;;26.34;28.62
24620;BME280;12763;55.802;37.404;2023-06-19T10:10:09;99592.75;;;26.87;28.28
24620;BME280;12763;55.802;37.404;2023-06-19T10:12:45;99597.81;;;26.54;27.77
24620;BME280;12763;55.802;37.404;2023-06-19T10:15:24;99580.31;;;26.30;27.76
24620;BME280;12763;55.802;37.404;2023-06-19T10:18:00;99581.38;;;26.78;27.54
24620;BME280;12763;55.802;37.404;2023-06-19T10:23:19;99581.78;;;27.98;25.97
24620;BME280;12763;55.802;37.404;2023-06-19T10:25:48;99588.13;;;27.95;25.97
24620;BME280;12763;55.802;37.404;2023-06-19T10:28:32;99585.06;;;27.66;26.02
24620;BME280;12763;55.802;37.404;2023-06-19T10:31:07;99575.81;;;28.17;26.09
24620;BME280;12763;55.802;37.404;2023-06-19T10:33:37;99577.97;;;28.12;25.80
24620;BME280;12763;55.802;37.404;2023-06-19T10:36:20;99575.47;;;28.36;25.63
24620;BME280;12763;55.802;37.404;2023-06-19T10:38:47;99568.13;;;28.52;25.82
24620;BME280;12763;55.802;37.404;2023-06-19T10:41:20;99570.97;;;29.24;25.28
24620;BME280;12763;55.802;37.404;2023-06-19T10:44:00;99562.94;;;29.55;24.80
24620;BME280;12763;55.802;37.404;2023-06-19T10:46:30;99569.81;;;29.84;25.23
24620;BME280;12763;55.802;37.404;2023-06-19T10:48:58;99559.97;;;30.02;24.77
24620;BME280;12763;55.802;37.404;2023-06-19T10:51:27;99568.72;;;30.17;24.77
24620;BME280;12763;55.802;37.404;2023-06-19T10:53:55;99564.84;;;30.01;24.79
24620;BME280;12763;55.802;37.404;2023-06-19T10:56:21;99557.47;;;30.00;24.82
24620;BME280;12763;55.802;37.404;2023-06-19T10:58:48;99566.97;;;29.54;24.81
24620;BME280;12763;55.802;37.404;2023-06-19T11:01:14;99558.63;;;29.49;24.69
24620;BME280;12763;55.802;37.404;2023-06-19T11:03:40;99550.84;;;29.38;25.05
24620;BME280;12763;55.802;37.404;2023-06-19T11:06:07;99556.91;;;29.57;24.83
24620;BME280;12763;55.802;37.404;2023-06-19T11:08:34;99558.16;;;29.97;24.17
24620;BME280;12763;55.802;37.404;2023-06-19T11:11:00;99554.25;;;29.23;24.47
24620;BME280;12763;55.802;37.404;2023-06-19T11:13:25;99545.13;;;29.67;24.06
24620;BME280;12763;55.802;37.404;2023-06-19T11:15:51;99552.03;;;30.28;23.49
24620;BME280;12763;55.802;37.404;2023-06-19T11:18:18;99553.44;;;29.81;23.67
24620;BME280;12763;55.802;37.404;2023-06-19T11:20:46;99550.66;;;30.34;22.63
24620;BME280;12763;55.802;37.404;2023-06-19T11:23:12;99543.53;;;30.49;22.48
24620;BME280;12763;55.802;37.404;2023-06-19T11:25:40;99549.34;;;30.32;22.50
24620;BME280;12763;55.802;37.404;2023-06-19T11:28:13;99538.59;;;29.66;24.04
24620;BME280;12763;55.802;37.404;2023-06-19T11:30:41;99539.28;;;29.43;23.95
24620;BME280;12763;55.802;37.404;2023-06-19T11:33:20;99535.22;;;30.56;21.83
24620;BME280;12763;55.802;37.404;2023-06-19T11:35:49;99526.19;;;30.87;21.99
24620;BME280;12763;55.802;37.404;2023-06-19T11:38:23;99521.63;;;31.55;21.74
24620;BME280;12763;55.802;37.404;2023-06-19T11:40:50;99526.09;;;31.80;21.42
24620;BME280;12763;55.802;37.404;2023-06-19T11:43:27;99527.31;;;32.31;20.84
24620;BME280;12763;55.802;37.404;2023-06-19T11:46:02;99523.75;;;32.49;20.84
24620;BME280;12763;55.802;37.404;2023-06-19T11:48:28;99522.19;;;32.52;21.19
24620;BME280;12763;55.802;37.404;2023-06-19T11:50:54;99525.94;;;32.40;20.77
24620;BME280;12763;55.802;37.404;2023-06-19T11:53:22;99531.56;;;31.85;21.12
24620;BME280;12763;55.802;37.404;2023-06-19T11:55:48;99534.00;;;31.47;21.00
24620;BME280;12763;55.802;37.404;2023-06-19T11:58:14;99515.00;;;31.51;20.89
24620;BME280;12763;55.802;37.404;2023-06-19T12:00:45;99508.97;;;31.92;20.37
24620;BME280;12763;55.802;37.404;2023-06-19T12:03:10;99515.94;;;32.07;20.36
24620;BME280;12763;55.802;37.404;2023-06-19T12:05:37;99513.97;;;31.83;20.66
24620;BME280;12763;55.802;37.404;2023-06-19T12:08:03;99515.72;;;30.78;21.54
24620;BME280;12763;55.802;37.404;2023-06-19T12:10:30;99505.44;;;30.53;21.75
24620;BME280;12763;55.802;37.404;2023-06-19T12:12:56;99491.91;;;30.50;21.55
24620;BME280;12763;55.802;37.404;2023-06-19T12:15:24;99503.53;;;31.02;21.07
24620;BME280;12763;55.802;37.404;2023-06-19T12:17:51;99508.03;;;31.88;20.34
24620;BME280;12763;55.802;37.404;2023-06-19T12:20:17;99504.25;;;31.84;20.45
24620;BME280;12763;55.802;37.404;2023-06-19T12:22:44;99503.53;;;31.87;20.26
24620;BME280;12763;55.802;37.404;2023-06-19T12:25:10;99493.34;;;31.62;21.01
24620;BME280;12763;55.802;37.404;2023-06-19T12:27:39;99500.19;;;32.52;20.12
24620;BME280;12763;55.802;37.404;2023-06-19T12:30:05;99497.72;;;33.10;20.19
24620;BME280;12763;55.802;37.404;2023-06-19T12:32:34;99499.31;;;33.74;20.04
24620;BME280;12763;55.802;37.404;2023-06-19T12:35:01;99488.47;;;33.63;19.62
24620;BME280;12763;55.802;37.404;2023-06-19T12:37:31;99487.19;;;32.67;20.70
24620;BME280;12763;55.802;37.404;2023-06-19T12:39:57;99491.63;;;31.85;21.45
24620;BME280;12763;55.802;37.404;2023-06-19T12:42:23;99483.31;;;30.83;22.20
24620;BME280;12763;55.802;37.404;2023-06-19T12:44:49;99472.41;;;31.70;21.17
24620;BME280;12763;55.802;37.404;2023-06-19T12:47:15;99480.81;;;32.46;20.85
24620;BME280;12763;55.802;37.404;2023-06-19T12:49:44;99479.50;;;32.87;20.64
24620;BME280;12763;55.802;37.404;2023-06-19T12:52:10;99473.25;;;32.81;20.73
24620;BME280;12763;55.802;37.404;2023-06-19T12:54:37;99479.75;;;32.50;20.75
24620;BME280;12763;55.802;37.404;2023-06-19T12:57:03;99470.91;;;31.12;21.69
24620;BME280;12763;55.802;37.404;2023-06-19T12:59:29;99466.44;;;32.42;20.33
24620;BME280;12763;55.802;37.404;2023-06-19T13:01:55;99469.22;;;33.29;20.50
24620;BME280;12763;55.802;37.404;2023-06-19T13:04:21;99463.50;;;33.80;19.84